createdAt,value
2019-04-20T00:00:06.681Z,102535.45
2019-04-20T00:02:44.069Z,102539.80
2019-04-20T00:05:16.987Z,102536.66
2019-04-20T00:07:52.162Z,102533.12
2019-04-20T00:10:27.260Z,102534.84
2019-04-20T00:13:11.411Z,102536.98
2019-04-20T00:15:38.930Z,102536.42
2019-04-20T00:18:15.039Z,102533.35
2019-04-20T00:21:00.367Z,102532.87
2019-04-20T00:23:45.052Z,102536.70
2019-04-20T00:27:03.638Z,102530.49
2019-04-20T00:29:25.406Z,102526.94
2019-04-20T00:31:56.652Z,102529.48
2019-04-20T00:34:26.718Z,102527.27
2019-04-20T00:36:54.244Z,102525.46
2019-04-20T00:39:30.353Z,102528.02
2019-04-20T00:42:08.013Z,102527.50
2019-04-20T00:44:43.841Z,102524.42
2019-04-20T00:47:30.723Z,102522.67
2019-04-20T00:50:00.889Z,102531.39
2019-04-20T00:52:45.212Z,102527.33
2019-04-20T00:55:02.391Z,102523.77
2019-04-20T00:57:46.610Z,102530.72
2019-04-20T01:00:33.897Z,102521.80
2019-04-20T01:03:11.059Z,102524.75
2019-04-20T01:05:53.029Z,102529.59
2019-04-20T01:08:21.636Z,102519.87
2019-04-20T01:11:00.731Z,102523.78
2019-04-20T01:13:42.187Z,102515.39
2019-04-20T01:16:26.803Z,102523.65
2019-04-20T01:18:48.262Z,102522.23
2019-04-20T01:21:28.827Z,102526.22
2019-04-20T01:24:04.649Z,102519.55
2019-04-20T01:26:43.509Z,102517.25
2019-04-20T01:29:21.754Z,102518.16
2019-04-20T01:32:00.722Z,102518.53
2019-04-20T01:34:39.325Z,102515.77
2019-04-20T01:37:14.458Z,102479.10
2019-04-20T01:39:41.847Z,102520.48
2019-04-20T01:42:13.046Z,102514.75
2019-04-20T01:44:50.802Z,102517.74
2019-04-20T01:47:32.086Z,102522.09
2019-04-20T01:50:08.579Z,102527.77
2019-04-20T01:52:50.851Z,102519.38
2019-04-20T01:55:44.032Z,102524.20
2019-04-20T01:58:30.327Z,102520.91
2019-04-20T02:01:21.034Z,102528.70
2019-04-20T02:03:56.845Z,102521.15
2019-04-20T02:06:31.809Z,102518.88
2019-04-20T02:09:16.686Z,102521.08
2019-04-20T02:11:47.392Z,102519.68
2019-04-20T02:14:27.326Z,102530.09
2019-04-20T02:17:06.956Z,102525.60
2019-04-20T02:20:04.603Z,102526.08
2019-04-20T02:22:38.346Z,102529.02
2019-04-20T02:24:55.132Z,102528.53
2019-04-20T02:27:36.797Z,102531.16
2019-04-20T02:42:20.331Z,102524.60
2019-04-20T02:44:44.269Z,102525.44
2019-04-20T02:47:21.619Z,102527.23
2019-04-20T02:50:15.275Z,102533.83
2019-04-20T02:57:55.186Z,102530.98
2019-04-20T03:00:19.790Z,102538.41
2019-04-20T03:02:46.048Z,102537.59
2019-04-20T03:05:25.641Z,102533.70
2019-04-20T03:08:02.862Z,102529.41
2019-04-20T03:10:46.439Z,102526.31
2019-04-20T03:13:18.622Z,102528.41
2019-04-20T03:15:56.474Z,102531.86
2019-04-20T03:18:32.123Z,102530.16
2019-04-20T03:21:13.978Z,102526.17
2019-04-20T03:23:54.250Z,102528.36
2019-04-20T03:26:37.922Z,102537.11
2019-04-20T03:29:30.605Z,102531.14
2019-04-20T03:32:38.343Z,102531.44
2019-04-20T03:37:38.205Z,102528.73
2019-04-20T03:40:16.875Z,102528.37
2019-04-20T03:42:33.092Z,102526.93
2019-04-20T03:45:14.401Z,102528.11
2019-04-20T03:48:03.034Z,102527.53
2019-04-20T03:50:46.243Z,102526.55
2019-04-20T03:53:27.794Z,102526.39
2019-04-20T03:56:30.991Z,102522.04
2019-04-20T03:59:08.145Z,102523.78
2019-04-20T04:02:14.863Z,102527.81
2019-04-20T04:04:54.570Z,102530.81
2019-04-20T04:07:22.868Z,102531.75
2019-04-20T04:10:08.437Z,102532.63
2019-04-20T04:13:14.733Z,102529.22
2019-04-20T04:15:57.492Z,102530.09
2019-04-20T04:18:36.825Z,102529.50
2019-04-20T04:21:10.002Z,102534.45
2019-04-20T04:23:58.902Z,102528.94
2019-04-20T04:26:37.820Z,102530.53
2019-04-20T04:29:30.169Z,102525.88
2019-04-20T04:32:14.122Z,102528.55
2019-04-20T04:34:45.894Z,102525.92
2019-04-20T04:37:17.624Z,102521.59
2019-04-20T04:39:56.042Z,102529.59
2019-04-20T04:42:30.379Z,102523.62
2019-04-20T04:44:53.649Z,102520.95
2019-04-20T04:47:26.275Z,102527.30
2019-04-20T04:50:10.987Z,102532.64
2019-04-20T04:52:53.690Z,102534.27
2019-04-20T04:55:34.141Z,102539.39
2019-04-20T04:57:58.436Z,102540.34
2019-04-20T05:00:34.718Z,102544.54
2019-04-20T05:03:26.686Z,102535.91
2019-04-20T05:06:14.860Z,102541.84
2019-04-20T05:08:42.008Z,102537.62
2019-04-20T05:11:11.050Z,102539.45
2019-04-20T05:13:54.646Z,102540.08
2019-04-20T05:16:47.066Z,102540.66
2019-04-20T05:19:26.096Z,102543.17
2019-04-20T05:22:17.773Z,102549.41
2019-04-20T05:25:05.748Z,102543.83
2019-04-20T05:27:56.253Z,102542.29
2019-04-20T05:30:11.870Z,102538.71
2019-04-20T05:32:56.111Z,102544.90
2019-04-20T05:35:44.133Z,102545.56
2019-04-20T05:38:37.173Z,102545.36
2019-04-20T05:41:11.829Z,102540.67
2019-04-20T05:44:04.686Z,102536.56
2019-04-20T05:46:59.924Z,102535.77
2019-04-20T05:49:34.568Z,102530.29
2019-04-20T05:52:36.193Z,102533.44
2019-04-20T05:55:23.688Z,102538.45
2019-04-20T05:58:11.222Z,102531.13
2019-04-20T06:01:00.217Z,102540.84
2019-04-20T06:03:37.149Z,102542.11
2019-04-20T06:06:15.176Z,102541.77
2019-04-20T06:09:08.569Z,102544.50
2019-04-20T06:11:56.253Z,102550.75
2019-04-20T06:14:39.464Z,102552.08
2019-04-20T06:17:31.680Z,102547.73
2019-04-20T06:20:15.564Z,102544.19
2019-04-20T06:22:59.956Z,102546.87
2019-04-20T06:26:07.565Z,102546.00
2019-04-20T06:28:23.358Z,102538.06
2019-04-20T06:30:52.620Z,102534.91
2019-04-20T06:36:57.124Z,102541.89
2019-04-20T06:39:40.716Z,102542.71
2019-04-20T06:42:15.121Z,102543.58
2019-04-20T06:44:50.814Z,102542.19
2019-04-20T06:47:47.344Z,102545.21
2019-04-20T06:50:01.780Z,102547.32
2019-04-20T06:53:20.520Z,102548.04
2019-04-20T06:55:59.985Z,102546.57
2019-04-20T06:58:39.030Z,102549.97
2019-04-20T07:01:02.152Z,102542.80
2019-04-20T07:03:56.446Z,102548.92
2019-04-20T07:06:32.130Z,102549.25
2019-04-20T07:08:57.396Z,102544.81
2019-04-20T07:11:23.252Z,102537.20
2019-04-20T07:13:43.510Z,102542.82
2019-04-20T07:16:36.375Z,102538.32
2019-04-20T07:19:18.571Z,102537.39
2019-04-20T07:24:56.656Z,102539.72
2019-04-20T07:27:30.725Z,102536.34
2019-04-20T07:30:07.378Z,102534.16
2019-04-20T07:32:51.148Z,102530.33
2019-04-20T07:35:14.212Z,102536.91
2019-04-20T07:40:28.992Z,102537.17
2019-04-20T07:43:19.739Z,102539.95
2019-04-20T07:45:46.614Z,102534.05
2019-04-20T07:48:25.779Z,102536.51
2019-04-20T07:50:40.925Z,102527.91
2019-04-20T07:53:24.612Z,102532.97
2019-04-20T07:56:04.701Z,102531.00
2019-04-20T07:58:25.060Z,102535.64
2019-04-20T08:01:23.744Z,102530.38
2019-04-20T08:04:06.640Z,102531.62
2019-04-20T08:06:28.909Z,102528.64
2019-04-20T08:09:11.616Z,102530.05
2019-04-20T08:11:56.534Z,102526.60
2019-04-20T08:14:31.832Z,102520.69
2019-04-20T08:17:14.079Z,102523.02
2019-04-20T08:19:41.003Z,102519.25
2019-04-20T08:22:19.782Z,102516.48
2019-04-20T08:24:48.458Z,102510.27
2019-04-20T08:27:14.419Z,102515.27
2019-04-20T08:30:09.085Z,102509.95
2019-04-20T08:33:05.221Z,102512.00
2019-04-20T08:35:52.589Z,102513.68
2019-04-20T08:38:52.910Z,102511.42
2019-04-20T08:41:00.298Z,102509.23
2019-04-20T08:43:53.536Z,102508.91
2019-04-20T08:46:17.781Z,102505.74
2019-04-20T08:48:50.855Z,102504.63
2019-04-20T08:51:26.065Z,102504.93
2019-04-20T08:53:57.068Z,102500.32
2019-04-20T08:56:31.163Z,102491.48
2019-04-20T08:58:52.828Z,102485.88
2019-04-20T09:01:30.884Z,102489.70
2019-04-20T09:04:09.804Z,102487.03
2019-04-20T09:06:54.541Z,102478.63
2019-04-20T09:09:44.285Z,102470.48
2019-04-20T09:12:06.395Z,102469.52
2019-04-20T09:14:23.745Z,102468.17
2019-04-20T09:17:06.839Z,102466.03
2019-04-20T09:19:47.037Z,102467.08
2019-04-20T09:22:38.785Z,102470.42
2019-04-20T09:25:42.711Z,102466.04
2019-04-20T09:27:50.765Z,102456.02
2019-04-20T09:30:36.394Z,102457.88
2019-04-20T09:33:14.586Z,102453.79
2019-04-20T09:35:48.655Z,102457.03
2019-04-20T09:38:21.702Z,102454.74
2019-04-20T09:40:58.446Z,102452.61
2019-04-20T09:43:34.748Z,102448.60
2019-04-20T09:46:08.928Z,102449.79
2019-04-20T09:48:53.569Z,102443.34
2019-04-20T09:51:38.882Z,102442.16
2019-04-20T09:54:05.306Z,102444.33
2019-04-20T09:56:49.681Z,102448.49
2019-04-20T09:59:22.060Z,102450.58
2019-04-20T10:01:45.239Z,102441.77
2019-04-20T10:04:15.323Z,102438.38
2019-04-20T10:06:49.702Z,102442.48
2019-04-20T10:09:29.458Z,102439.45
2019-04-20T10:11:57.776Z,102437.15
2019-04-20T10:14:31.080Z,102427.95
2019-04-20T10:17:05.719Z,102434.41
2019-04-20T10:19:40.096Z,102430.86
2019-04-20T10:22:14.906Z,102425.88
2019-04-20T10:24:50.335Z,102433.02
2019-04-20T10:27:24.215Z,102430.44
2019-04-20T10:30:00.744Z,102425.03
2019-04-20T10:32:39.155Z,102413.86
2019-04-20T10:35:08.989Z,102415.42
2019-04-20T10:37:47.238Z,102419.75
2019-04-20T10:40:35.834Z,102417.58
2019-04-20T10:42:59.398Z,102416.86
2019-04-20T10:45:30.882Z,102421.77
2019-04-20T10:48:05.425Z,102413.38
2019-04-20T10:50:39.020Z,102409.24
2019-04-20T10:53:13.997Z,102405.92
2019-04-20T10:55:47.427Z,102408.81
2019-04-20T10:58:21.875Z,102408.06
2019-04-20T11:00:55.744Z,102398.66
2019-04-20T11:03:29.097Z,102401.23
2019-04-20T11:06:02.812Z,102403.44
2019-04-20T11:08:36.194Z,102394.52
2019-04-20T11:11:16.405Z,102389.36
2019-04-20T11:13:47.643Z,102399.59
2019-04-20T11:16:26.600Z,102388.27
2019-04-20T11:19:03.271Z,102389.96
2019-04-20T11:21:36.943Z,102389.28
2019-04-20T11:24:12.145Z,102394.09
2019-04-20T11:26:46.862Z,102386.98
2019-04-20T11:29:24.180Z,102385.94
2019-04-20T11:31:58.192Z,102381.24
2019-04-20T11:34:44.200Z,102377.59
2019-04-20T11:37:19.345Z,102373.05
2019-04-20T11:39:52.898Z,102367.98
2019-04-20T11:42:26.173Z,102368.73
2019-04-20T11:45:00.411Z,102362.34
2019-04-20T11:48:11.641Z,102357.93
2019-04-20T11:50:58.885Z,102352.05
2019-04-20T11:53:34.807Z,102355.11
2019-04-20T11:56:15.924Z,102348.39
2019-04-20T11:58:43.183Z,102353.14
2019-04-20T12:01:38.132Z,102346.37
2019-04-20T12:04:24.907Z,102345.77
2019-04-20T12:06:44.938Z,102341.59
2019-04-20T12:09:19.047Z,102337.00
2019-04-20T12:12:04.098Z,102330.88
2019-04-20T12:14:28.465Z,102331.64
2019-04-20T12:17:01.827Z,102332.08
2019-04-20T12:19:36.295Z,102331.02
2019-04-20T12:22:11.896Z,102324.52
2019-04-20T12:24:47.918Z,102319.06
2019-04-20T12:27:22.857Z,102320.83
2019-04-20T12:29:57.552Z,102317.38
2019-04-20T12:32:36.417Z,102314.94
2019-04-20T12:35:08.603Z,102312.75
2019-04-20T12:37:43.114Z,102301.96
2019-04-20T12:40:19.929Z,102310.44
2019-04-20T12:42:54.935Z,102305.35
2019-04-20T12:45:42.423Z,102297.70
2019-04-20T12:48:11.460Z,102302.06
2019-04-20T12:50:47.800Z,102290.42
2019-04-20T12:53:26.498Z,102296.66
2019-04-20T12:56:04.354Z,102287.94
2019-04-20T12:58:42.985Z,102281.44
2019-04-20T13:01:23.724Z,102282.62
2019-04-20T13:03:57.761Z,102277.78
2019-04-20T13:06:32.146Z,102276.66
2019-04-20T13:09:12.753Z,102269.07
2019-04-20T13:12:09.943Z,102270.89
2019-04-20T13:16:00.540Z,102278.98
2019-04-20T13:18:47.517Z,102278.13
2019-04-20T13:21:22.982Z,102268.38
2019-04-20T13:23:56.640Z,102266.22
2019-04-20T13:26:30.985Z,102277.66
2019-04-20T13:29:06.776Z,102269.86
2019-04-20T13:31:51.974Z,102263.77
2019-04-20T13:34:19.906Z,102260.22
2019-04-20T13:36:56.343Z,102258.66
2019-04-20T13:39:30.965Z,102265.16
2019-04-20T13:42:12.092Z,102256.45
2019-04-20T13:44:39.197Z,102247.77
2019-04-20T13:47:12.764Z,102243.37
2019-04-20T13:49:47.087Z,102249.35
2019-04-20T13:52:20.668Z,102244.02
2019-04-20T13:54:55.908Z,102239.38
2019-04-20T13:57:47.153Z,102250.44
2019-04-20T14:00:55.544Z,102238.44
2019-04-20T14:03:32.275Z,102241.91
2019-04-20T14:06:06.849Z,102242.43
2019-04-20T14:08:41.213Z,102230.09
2019-04-20T14:11:15.606Z,102230.44
2019-04-20T14:13:56.391Z,102231.16
2019-04-20T14:16:25.159Z,102229.16
2019-04-20T14:18:58.780Z,102214.31
2019-04-20T14:21:32.628Z,102218.97
2019-04-20T14:24:06.684Z,102212.01
2019-04-20T14:26:42.121Z,102219.36
2019-04-20T14:29:16.960Z,102210.91
2019-04-20T14:31:50.427Z,102204.73
2019-04-20T14:34:24.702Z,102207.47
2019-04-20T14:37:00.279Z,102206.09
2019-04-20T14:39:36.289Z,102203.16
2019-04-20T14:42:09.976Z,102197.68
2019-04-20T14:44:45.858Z,102203.93
2019-04-20T14:47:19.279Z,102195.43
2019-04-20T14:49:55.168Z,102196.69
2019-04-20T14:52:29.440Z,102192.98
2019-04-20T14:55:04.209Z,102190.73
2019-04-20T14:57:37.457Z,102181.89
2019-04-20T15:00:27.791Z,102185.64
2019-04-20T15:03:19.860Z,102180.07
2019-04-20T15:05:57.705Z,102179.13
2019-04-20T15:08:32.401Z,102174.47
2019-04-20T15:11:07.199Z,102175.07
2019-04-20T15:13:40.753Z,102173.91
2019-04-20T15:16:15.017Z,102168.39
2019-04-20T15:19:05.641Z,102171.75
2019-04-20T15:21:39.681Z,102164.42
2019-04-20T15:24:13.403Z,102163.16
2019-04-20T15:26:46.709Z,102157.91
2019-04-20T15:29:22.135Z,102154.37
2019-04-20T15:31:56.501Z,102156.52
2019-04-20T15:34:30.914Z,102159.59
2019-04-20T15:37:07.612Z,102154.83
2019-04-20T15:39:41.150Z,102163.76
2019-04-20T15:42:15.085Z,102154.34
2019-04-20T15:44:58.874Z,102153.83
2019-04-20T15:47:34.456Z,102155.13
2019-04-20T15:50:09.744Z,102147.12
2019-04-20T15:52:50.909Z,102146.38
2019-04-20T15:55:29.611Z,102143.44
2019-04-20T15:58:04.232Z,102141.99
2019-04-20T16:00:38.378Z,102142.62
2019-04-20T16:03:27.592Z,102141.99
2019-04-20T16:06:39.191Z,102143.91
2019-04-20T16:09:35.873Z,102141.91
2019-04-20T16:12:17.254Z,102138.68
2019-04-20T16:14:55.578Z,102137.58
2019-04-20T16:17:36.363Z,102133.69
2019-04-20T16:20:10.311Z,102134.27
2019-04-20T16:22:40.550Z,102133.33
2019-04-20T16:25:43.581Z,102132.03
2019-04-20T16:28:17.373Z,102134.86
2019-04-20T16:30:51.691Z,102129.13
2019-04-20T16:33:26.062Z,102133.09
2019-04-20T16:36:00.635Z,102132.69
2019-04-20T16:38:35.087Z,102126.92
2019-04-20T16:41:08.585Z,102125.66
2019-04-20T16:43:44.717Z,102131.51
2019-04-20T16:46:18.812Z,102127.80
2019-04-20T16:48:52.659Z,102125.81
2019-04-20T16:51:26.906Z,102128.41
2019-04-20T16:54:01.539Z,102127.00
2019-04-20T16:56:35.094Z,102126.25
2019-04-20T16:59:10.327Z,102122.32
2019-04-20T17:01:44.492Z,102125.02
2019-04-20T17:04:22.037Z,102118.97
2019-04-20T17:07:31.170Z,102115.83
2019-04-20T17:10:04.596Z,102108.16
2019-04-20T17:12:38.044Z,102118.09
2019-04-20T17:15:15.833Z,102108.80
2019-04-20T17:17:51.143Z,102109.84
2019-04-20T17:20:25.742Z,102097.80
2019-04-20T17:23:00.241Z,102106.41
2019-04-20T17:25:34.372Z,102111.81
2019-04-20T17:28:30.822Z,102114.52
2019-04-20T17:31:39.702Z,102114.16
2019-04-20T17:34:29.737Z,102108.45
2019-04-20T17:36:50.633Z,102109.09
2019-04-20T17:39:33.933Z,102109.70
2019-04-20T17:42:16.849Z,102111.20
2019-04-20T17:44:50.281Z,102115.30
2019-04-20T17:47:32.917Z,102109.67
2019-04-20T17:50:07.925Z,102105.90
2019-04-20T17:52:44.854Z,102106.03
2019-04-20T17:55:03.353Z,102113.75
2019-04-20T17:57:37.310Z,102115.73
2019-04-20T18:00:22.552Z,102110.27
2019-04-20T18:03:12.338Z,102111.84
2019-04-20T18:05:58.496Z,102110.78
2019-04-20T18:08:32.159Z,102110.59
2019-04-20T18:10:58.563Z,102110.40
2019-04-20T18:13:28.563Z,102107.96
2019-04-20T18:16:22.463Z,102109.92
2019-04-20T18:19:05.654Z,102107.87
2019-04-20T18:21:49.705Z,102117.84
2019-04-20T18:24:50.720Z,102120.23
2019-04-20T18:27:24.518Z,102123.48
2019-04-20T18:29:53.443Z,102120.14
2019-04-20T18:32:31.544Z,102115.49
2019-04-20T18:35:12.200Z,102110.44
2019-04-20T18:37:53.564Z,102121.32
2019-04-20T18:40:29.124Z,102110.89
2019-04-20T18:43:06.383Z,102109.34
2019-04-20T18:45:52.738Z,102111.70
2019-04-20T18:48:24.966Z,102109.25
2019-04-20T18:50:44.231Z,102105.81
2019-04-20T18:53:23.838Z,102110.44
2019-04-20T18:55:55.315Z,102106.11
2019-04-20T18:58:26.939Z,102107.61
2019-04-20T19:01:01.152Z,102106.42
2019-04-20T19:03:41.842Z,102106.00
2019-04-20T19:06:11.235Z,102111.44
2019-04-20T19:08:49.911Z,102110.21
2019-04-20T19:11:23.223Z,102110.75
2019-04-20T19:14:23.643Z,102106.94
2019-04-20T19:17:05.623Z,102108.80
2019-04-20T19:19:39.020Z,102108.02
2019-04-20T19:22:07.926Z,102106.41
2019-04-20T19:24:43.603Z,102095.86
2019-04-20T19:27:37.847Z,102103.38
2019-04-20T19:30:15.392Z,102103.43
2019-04-20T19:32:54.484Z,102102.62
2019-04-20T19:35:30.859Z,102102.71
2019-04-20T19:38:01.465Z,102101.91
2019-04-20T19:40:38.547Z,102121.97
2019-04-20T19:43:13.185Z,102130.39
2019-04-20T19:46:07.310Z,102132.44
2019-04-20T19:48:24.091Z,102138.74
2019-04-20T19:51:10.113Z,102138.25
2019-04-20T19:53:44.227Z,102139.16
2019-04-20T19:56:07.723Z,102142.66
2019-04-20T19:58:45.640Z,102138.24
2019-04-20T20:01:11.519Z,102145.73
2019-04-20T20:03:50.623Z,102145.32
2019-04-20T20:06:29.259Z,102142.22
2019-04-20T20:09:04.170Z,102148.87
2019-04-20T20:11:39.165Z,102142.72
2019-04-20T20:14:13.071Z,102141.43
2019-04-20T20:17:06.921Z,102144.08
2019-04-20T20:19:35.529Z,102143.21
2019-04-20T20:22:11.193Z,102145.77
2019-04-20T20:24:31.387Z,102150.66
2019-04-20T20:27:11.677Z,102159.05
2019-04-20T20:29:47.260Z,102160.41
2019-04-20T20:32:23.385Z,102160.41
2019-04-20T20:34:56.217Z,102163.55
2019-04-20T20:37:34.696Z,102163.52
2019-04-20T20:40:13.566Z,102169.34
2019-04-20T20:42:53.067Z,102169.42
2019-04-20T20:45:22.695Z,102178.30
2019-04-20T20:48:04.001Z,102178.30
2019-04-20T20:50:42.067Z,102182.30
2019-04-20T20:53:10.258Z,102187.09
2019-04-20T20:55:40.949Z,102183.63
2019-04-20T20:58:14.597Z,102187.59
2019-04-20T21:00:54.385Z,102185.39
2019-04-20T21:03:24.680Z,102177.95
2019-04-20T21:05:53.626Z,102178.39
2019-04-20T21:08:26.965Z,102174.88
2019-04-20T21:11:00.240Z,102175.78
2019-04-20T21:13:39.286Z,102167.91
2019-04-20T21:16:16.372Z,102171.00
2019-04-20T21:19:01.048Z,102170.55
2019-04-20T21:21:33.519Z,102170.20
2019-04-20T21:24:04.033Z,102165.33
2019-04-20T21:26:38.718Z,102173.25
2019-04-20T21:29:08.115Z,102176.37
2019-04-20T21:31:43.454Z,102173.78
2019-04-20T21:34:19.938Z,102174.23
2019-04-20T21:36:55.345Z,102172.05
2019-04-20T21:39:37.332Z,102169.43
2019-04-20T21:42:09.443Z,102172.52
2019-04-20T21:44:41.459Z,102171.23
2019-04-20T21:47:15.618Z,102179.60
2019-04-20T21:49:57.837Z,102176.11
2019-04-20T21:52:26.965Z,102173.88
2019-04-20T21:54:56.285Z,102174.80
2019-04-20T21:57:32.587Z,102168.23
2019-04-20T22:00:10.071Z,102170.45
2019-04-20T22:02:48.862Z,102167.84
2019-04-20T22:05:15.879Z,102170.94
2019-04-20T22:07:50.345Z,102169.60
2019-04-20T22:10:27.904Z,102173.60
2019-04-20T22:13:01.094Z,102173.60
2019-04-20T22:15:36.699Z,102174.48
2019-04-20T22:18:12.571Z,102170.09
2019-04-20T22:21:01.703Z,102172.73
2019-04-20T22:23:41.768Z,102172.73
2019-04-20T22:26:08.620Z,102173.62
2019-04-20T22:28:29.831Z,102171.44
2019-04-20T22:31:04.214Z,102174.08
2019-04-20T22:33:41.194Z,102174.94
2019-04-20T22:36:14.571Z,102173.65
2019-04-20T22:39:09.475Z,102173.20
2019-04-20T22:41:53.504Z,102174.53
2019-04-20T22:44:28.388Z,102169.25
2019-04-20T22:47:00.623Z,102167.06
2019-04-20T22:49:48.559Z,102162.22
2019-04-20T22:52:26.617Z,102170.57
2019-04-20T22:55:08.067Z,102164.43
2019-04-20T22:57:38.467Z,102159.58
2019-04-20T23:00:03.442Z,102158.67
2019-04-20T23:02:33.198Z,102157.34
2019-04-20T23:05:06.979Z,102149.44
2019-04-20T23:07:41.019Z,102146.80
2019-04-20T23:10:20.281Z,102146.36
2019-04-20T23:12:54.235Z,102147.66
2019-04-20T23:15:25.914Z,102139.33
2019-04-20T23:18:00.081Z,102131.42
2019-04-20T23:20:36.099Z,102132.28
2019-04-20T23:23:11.029Z,102128.77
2019-04-20T23:25:45.037Z,102117.33
2019-04-20T23:28:20.862Z,102120.39
2019-04-20T23:31:00.090Z,102125.66
2019-04-20T23:33:29.857Z,102120.41
2019-04-20T23:36:05.083Z,102124.79
2019-04-20T23:38:44.293Z,102112.05
2019-04-20T23:41:15.446Z,102112.46
2019-04-20T23:44:12.610Z,102114.20
2019-04-20T23:47:18.367Z,102104.99
2019-04-20T23:50:12.333Z,102107.14
2019-04-20T23:52:53.926Z,102100.11
2019-04-20T23:55:11.976Z,102099.69
2019-04-20T23:57:56.205Z,102098.34
